Time;durP1;ratioP1;P1;durP2;ratioP2;P2;SDS_P1;SDS_P2;PMS_P1;PMS_P2;Temp;Humidity;BMP_temperature;BMP_pressure;BME280_temperature;BME280_humidity;BME280_pressure;Samples;Min_cycle;Max_cycle;Signal;HPM_P1;HPM_P2
2023/10/31 00:00:44;;;;;;;6.47;5.87;;;11.80;99.90;;;;;;5052286;28;20679;-75
2023/10/31 00:03:10;;;;;;;6.20;5.60;;;11.70;99.90;;;;;;5052399;28;20171;-76
2023/10/31 00:05:36;;;;;;;7.07;6.43;;;11.70;99.90;;;;;;5052274;28;20723;-76
2023/10/31 00:08:01;;;;;;;6.73;6.13;;;11.70;99.90;;;;;;5052382;28;20203;-76
2023/10/31 00:10:27;;;;;;;6.27;5.20;;;11.60;99.90;;;;;;5051908;28;20746;-75
2023/10/31 00:12:52;;;;;;;5.47;4.97;;;11.70;99.90;;;;;;5052201;28;20179;-75
2023/10/31 00:15:18;;;;;;;5.20;4.80;;;11.60;99.90;;;;;;5051942;28;20196;-75
2023/10/31 00:17:43;;;;;;;6.13;4.03;;;11.60;99.90;;;;;;5051789;28;20164;-77
2023/10/31 00:20:09;;;;;;;4.30;4.00;;;11.50;99.90;;;;;;5051733;28;20199;-76
2023/10/31 00:22:35;;;;;;;3.00;2.70;;;11.50;99.90;;;;;;5052177;28;20190;-76
2023/10/31 00:25:00;;;;;;;2.80;2.60;;;11.50;99.90;;;;;;5052196;28;20211;-77
2023/10/31 00:27:26;;;;;;;2.77;2.10;;;11.50;99.90;;;;;;5052463;28;20171;-76
2023/10/31 00:29:51;;;;;;;1.97;1.77;;;11.50;99.90;;;;;;5052287;28;20183;-76
2023/10/31 00:32:17;;;;;;;2.13;1.93;;;11.50;99.90;;;;;;5053837;28;20648;-76
2023/10/31 00:34:42;;;;;;;2.30;2.10;;;11.40;99.90;;;;;;5055435;28;20175;-76
2023/10/31 00:37:08;;;;;;;1.60;1.30;;;11.40;99.90;;;;;;5055570;28;20176;-76
2023/10/31 00:39:34;;;;;;;2.47;1.23;;;11.40;99.90;;;;;;5055711;28;20194;-75
2023/10/31 00:41:59;;;;;;;3.17;1.80;;;11.30;99.90;;;;;;5054360;28;20175;-76
2023/10/31 00:44:25;;;;;;;2.07;1.70;;;11.30;99.90;;;;;;5056327;28;20251;-76
2023/10/31 00:46:51;;;;;;;2.57;2.00;;;11.30;99.90;;;;;;5055572;28;20223;-76
2023/10/31 00:49:16;;;;;;;3.53;2.30;;;11.20;99.90;;;;;;5055868;28;20188;-76
2023/10/31 00:51:42;;;;;;;4.13;2.47;;;11.20;99.90;;;;;;5055741;28;20281;-76
2023/10/31 00:54:07;;;;;;;2.57;2.37;;;11.20;99.90;;;;;;5055719;28;20175;-76
2023/10/31 00:56:34;;;;;;;3.23;2.73;;;11.20;99.90;;;;;;5055327;28;20199;-76
2023/10/31 00:59:00;;;;;;;4.03;2.77;;;11.20;99.90;;;;;;5055314;28;20306;-76
2023/10/31 01:01:25;;;;;;;6.30;3.27;;;11.30;99.90;;;;;;5054910;28;20282;-75
2023/10/31 01:03:51;;;;;;;4.03;3.53;;;11.20;99.90;;;;;;5054048;28;20651;-76
2023/10/31 01:06:16;;;;;;;4.63;3.50;;;11.20;99.90;;;;;;5055116;28;20663;-76
2023/10/31 01:08:42;;;;;;;4.77;4.37;;;11.20;99.90;;;;;;5055340;28;20655;-75
2023/10/31 01:11:07;;;;;;;7.10;4.97;;;11.20;99.90;;;;;;5055431;28;20552;-76
2023/10/31 01:13:33;;;;;;;5.83;5.30;;;11.20;99.90;;;;;;5055400;28;20539;-75
2023/10/31 01:15:58;;;;;;;9.47;5.60;;;11.20;99.90;;;;;;5055033;28;20651;-76
2023/10/31 01:18:24;;;;;;;6.90;5.70;;;11.20;99.90;;;;;;5054891;28;20643;-76
2023/10/31 01:20:49;;;;;;;6.87;6.20;;;11.20;99.90;;;;;;5055036;28;20203;-76
2023/10/31 01:23:15;;;;;;;6.23;5.30;;;11.20;99.90;;;;;;5055002;28;20361;-76
2023/10/31 01:25:40;;;;;;;7.00;5.33;;;11.10;99.90;;;;;;5054952;28;20207;-76
2023/10/31 01:28:06;;;;;;;7.40;5.03;;;11.10;99.90;;;;;;5054713;28;20175;-76
2023/10/31 01:30:32;;;;;;;5.37;4.87;;;11.10;99.90;;;;;;5054857;28;20199;-75
2023/10/31 01:32:58;;;;;;;6.27;4.80;;;11.10;99.90;;;;;;5055101;28;20294;-75
2023/10/31 01:35:24;;;;;;;5.73;4.73;;;11.10;99.90;;;;;;5054639;28;20240;-76
2023/10/31 01:37:49;;;;;;;5.50;4.83;;;11.10;99.90;;;;;;5054679;28;20171;-76
2023/10/31 01:40:15;;;;;;;6.07;4.63;;;11.10;99.90;;;;;;5054514;28;20207;-75
2023/10/31 01:42:41;;;;;;;4.80;4.30;;;11.10;99.90;;;;;;5052678;28;20171;-76
2023/10/31 01:45:07;;;;;;;7.53;4.93;;;11.10;99.90;;;;;;5053038;28;20277;-76
2023/10/31 01:47:33;;;;;;;4.77;4.27;;;11.10;99.90;;;;;;5054221;28;20229;-75
2023/10/31 01:49:59;;;;;;;8.00;4.97;;;11.10;99.90;;;;;;5054523;28;20179;-75
2023/10/31 01:52:25;;;;;;;7.40;4.33;;;11.10;99.90;;;;;;5054395;28;20195;-75
2023/10/31 01:54:51;;;;;;;6.60;4.30;;;11.00;99.90;;;;;;5054254;28;20198;-76
2023/10/31 01:57:19;;;;;;;4.20;3.80;;;11.00;99.90;;;;;;5054506;28;20180;-76
2023/10/31 01:59:45;;;;;;;7.63;4.60;;;11.00;99.90;;;;;;5054402;28;20259;-75
2023/10/31 02:02:10;;;;;;;6.13;4.27;;;10.90;99.90;;;;;;5054102;28;20190;-75
2023/10/31 02:04:36;;;;;;;5.63;4.83;;;11.00;99.90;;;;;;5054289;28;20174;-75
2023/10/31 02:07:01;;;;;;;8.63;5.83;;;10.90;99.90;;;;;;5054262;28;20211;-76
2023/10/31 02:09:29;;;;;;;11.10;5.40;;;10.90;99.90;;;;;;5054284;28;20176;-75
2023/10/31 02:11:54;;;;;;;12.73;6.07;;;10.80;99.90;;;;;;5054134;28;20246;-74
2023/10/31 02:14:22;;;;;;;8.97;6.13;;;10.80;99.90;;;;;;5054228;28;20237;-75
2023/10/31 02:16:47;;;;;;;6.90;5.60;;;10.80;99.90;;;;;;5053667;28;20218;-75
2023/10/31 02:19:18;;;;;;;8.93;5.50;;;10.80;99.90;;;;;;5053662;28;20172;-75
2023/10/31 02:21:44;;;;;;;7.57;5.67;;;10.80;99.90;;;;;;5053969;28;20287;-74
2023/10/31 02:24:09;;;;;;;8.17;5.60;;;10.90;99.90;;;;;;5053596;28;20172;-76
2023/10/31 02:26:35;;;;;;;10.87;6.27;;;10.80;99.90;;;;;;5053431;28;20664;-75
2023/10/31 02:29:01;;;;;;;8.00;6.27;;;10.80;99.90;;;;;;5068997;28;20210;-75
2023/10/31 02:31:27;;;;;;;9.67;6.07;;;10.80;99.90;;;;;;5053741;28;20267;-76
2023/10/31 02:33:53;;;;;;;8.57;6.80;;;10.80;99.90;;;;;;5053855;28;20214;-76
2023/10/31 02:36:19;;;;;;;9.17;6.40;;;10.80;99.90;;;;;;5053316;28;20674;-75
2023/10/31 02:38:45;;;;;;;11.70;6.63;;;10.80;99.90;;;;;;5053277;28;20218;-76
2023/10/31 02:41:11;;;;;;;11.70;7.23;;;10.80;99.90;;;;;;5053541;28;20195;-76
2023/10/31 02:43:37;;;;;;;11.00;6.57;;;10.80;99.90;;;;;;5053640;28;20504;-75
2023/10/31 02:46:03;;;;;;;12.50;7.07;;;10.80;99.90;;;;;;5053418;28;20722;-76
2023/10/31 02:48:31;;;;;;;9.27;6.57;;;10.80;99.90;;;;;;5051814;28;20206;-76
2023/10/31 02:50:57;;;;;;;10.70;6.77;;;10.80;99.90;;;;;;5053297;28;20168;-76
2023/10/31 02:53:23;;;;;;;8.20;6.20;;;10.80;99.90;;;;;;5053564;28;20176;-76
2023/10/31 02:55:49;;;;;;;9.73;6.70;;;10.80;99.90;;;;;;5052740;28;20201;-75
2023/10/31 02:58:14;;;;;;;9.27;6.00;;;10.80;99.90;;;;;;5053266;28;20599;-75
2023/10/31 03:00:40;;;;;;;9.60;6.40;;;10.80;99.90;;;;;;5053307;28;20199;-76
2023/10/31 03:03:05;;;;;;;12.00;7.40;;;10.80;99.90;;;;;;5051932;28;20658;-75
2023/10/31 03:05:31;;;;;;;9.80;6.67;;;10.80;99.90;;;;;;5052955;28;20201;-75
2023/10/31 03:07:57;;;;;;;9.53;6.77;;;10.90;99.90;;;;;;5052964;28;20171;-75
2023/10/31 03:10:22;;;;;;;10.03;6.80;;;10.90;99.90;;;;;;5052883;28;20191;-75
2023/10/31 03:12:48;;;;;;;10.47;7.13;;;10.90;99.90;;;;;;5053191;28;20652;-75
2023/10/31 03:15:14;;;;;;;10.63;7.17;;;10.90;99.90;;;;;;5052752;28;20191;-75
2023/10/31 03:17:39;;;;;;;12.27;7.27;;;10.90;99.90;;;;;;5052967;28;20198;-75
2023/10/31 03:20:05;;;;;;;11.97;7.63;;;10.90;99.90;;;;;;5051389;28;20281;-75
2023/10/31 03:22:31;;;;;;;12.13;7.43;;;10.90;99.90;;;;;;5053018;28;20172;-76
2023/10/31 03:24:56;;;;;;;12.93;8.10;;;10.90;99.90;;;;;;5052581;28;20271;-76
2023/10/31 03:27:22;;;;;;;9.60;7.37;;;10.90;99.90;;;;;;5052916;28;20236;-76
2023/10/31 03:29:48;;;;;;;10.63;7.50;;;10.90;99.90;;;;;;5051183;28;20195;-76
2023/10/31 03:32:14;;;;;;;13.73;7.97;;;10.90;99.90;;;;;;5053034;28;20176;-75
2023/10/31 03:34:40;;;;;;;13.13;7.87;;;10.90;99.90;;;;;;5052401;28;20222;-75
2023/10/31 03:37:06;;;;;;;11.00;7.27;;;10.90;99.90;;;;;;5052488;28;20176;-75
2023/10/31 03:39:31;;;;;;;11.17;8.00;;;10.90;99.90;;;;;;5052291;28;20168;-75
2023/10/31 03:41:57;;;;;;;10.57;7.67;;;10.90;99.90;;;;;;5052481;28;20186;-76
2023/10/31 03:44:22;;;;;;;11.73;8.40;;;10.90;99.90;;;;;;5052535;28;20175;-76
2023/10/31 03:46:48;;;;;;;14.80;9.43;;;10.90;99.90;;;;;;5052124;28;20277;-76
2023/10/31 03:49:13;;;;;;;11.00;8.20;;;10.90;99.90;;;;;;5052125;28;20199;-75
2023/10/31 03:51:39;;;;;;;12.23;8.23;;;10.80;99.90;;;;;;5052378;28;20593;-75
2023/10/31 03:54:05;;;;;;;13.40;8.80;;;10.80;99.90;;;;;;5052317;28;20183;-75
2023/10/31 03:56:30;;;;;;;12.73;8.57;;;10.80;99.90;;;;;;5052420;28;20198;-76
2023/10/31 03:58:56;;;;;;;11.37;9.03;;;10.80;99.90;;;;;;5052292;28;20211;-76
2023/10/31 04:01:21;;;;;;;13.13;9.20;;;10.80;99.90;;;;;;5051889;28;20196;-76
2023/10/31 04:03:47;;;;;;;10.93;9.23;;;10.90;99.90;;;;;;5052176;28;20482;-75
2023/10/31 04:06:12;;;;;;;12.10;9.33;;;10.80;99.90;;;;;;5054573;28;20195;-76
2023/10/31 04:08:38;;;;;;;13.57;10.03;;;10.80;99.90;;;;;;5056224;28;20171;-75
2023/10/31 04:11:03;;;;;;;14.33;9.47;;;10.80;99.90;;;;;;5056051;28;20646;-75
2023/10/31 04:13:29;;;;;;;10.60;8.17;;;10.80;99.90;;;;;;5056282;28;20585;-75
2023/10/31 04:15:55;;;;;;;12.73;8.80;;;10.90;99.90;;;;;;5054667;28;20211;-75
2023/10/31 04:18:20;;;;;;;12.40;9.03;;;10.80;99.90;;;;;;5055908;28;20655;-75
2023/10/31 04:20:46;;;;;;;13.70;8.93;;;10.80;99.90;;;;;;5055872;28;20718;-76
2023/10/31 04:23:11;;;;;;;10.63;8.40;;;10.80;99.90;;;;;;5056151;28;20164;-75
2023/10/31 04:25:37;;;;;;;12.50;8.40;;;10.80;99.90;;;;;;5055906;28;20530;-76
2023/10/31 04:28:03;;;;;;;11.37;9.40;;;10.70;99.90;;;;;;5055780;28;20172;-76
2023/10/31 04:30:29;;;;;;;12.70;8.93;;;10.80;99.90;;;;;;5055792;28;20188;-76
2023/10/31 04:32:54;;;;;;;12.00;9.47;;;10.80;99.90;;;;;;5055848;28;20171;-75
2023/10/31 04:35:20;;;;;;;12.07;8.50;;;10.80;99.90;;;;;;5055947;28;20533;-76
2023/10/31 04:37:45;;;;;;;12.93;8.50;;;10.70;99.90;;;;;;5055582;28;20592;-75
2023/10/31 04:40:12;;;;;;;10.83;8.80;;;10.70;99.90;;;;;;5055487;28;20207;-75
2023/10/31 04:42:43;;;;;;;12.93;9.17;;;10.80;99.90;;;;;;5055374;28;20177;-76
2023/10/31 04:45:09;;;;;;;13.10;8.70;;;10.70;99.90;;;;;;5055572;28;20603;-75
2023/10/31 04:47:34;;;;;;;12.30;9.17;;;10.80;99.90;;;;;;5055490;28;20180;-75
2023/10/31 04:50:00;;;;;;;9.83;8.23;;;10.70;99.90;;;;;;5055875;28;20650;-75
2023/10/31 04:52:26;;;;;;;12.20;8.90;;;10.70;99.90;;;;;;5055385;28;20195;-77
2023/10/31 04:54:52;;;;;;;10.60;8.70;;;10.70;99.90;;;;;;5055656;28;20269;-75
2023/10/31 04:57:17;;;;;;;13.33;8.60;;;10.70;99.90;;;;;;5055387;28;20630;-76
2023/10/31 04:59:43;;;;;;;10.97;8.83;;;10.70;99.90;;;;;;5055131;28;20171;-76
2023/10/31 05:02:08;;;;;;;14.47;9.33;;;10.70;99.90;;;;;;5055105;28;20172;-75
2023/10/31 05:04:37;;;;;;;13.67;8.83;;;10.70;99.90;;;;;;5055050;28;20190;-75
2023/10/31 05:07:03;;;;;;;12.57;8.70;;;10.70;99.90;;;;;;5054931;28;20266;-75
2023/10/31 05:09:28;;;;;;;10.10;8.80;;;10.70;99.90;;;;;;5055156;28;20196;-76
2023/10/31 05:11:54;;;;;;;13.50;9.07;;;10.70;99.90;;;;;;5054913;28;20255;-75
2023/10/31 05:14:19;;;;;;;13.17;8.37;;;10.70;99.90;;;;;;5070165;28;20179;-75
2023/10/31 05:16:45;;;;;;;12.53;9.53;;;10.70;99.90;;;;;;5053986;28;20203;-75
2023/10/31 05:19:11;;;;;;;12.17;9.47;;;10.70;99.90;;;;;;5054805;28;20268;-75
2023/10/31 05:21:36;;;;;;;12.70;9.47;;;10.70;99.90;;;;;;5054830;28;20207;-76
2023/10/31 05:24:02;;;;;;;13.73;9.17;;;10.80;99.90;;;;;;5054822;28;20176;-76
2023/10/31 05:26:29;;;;;;;11.57;9.10;;;10.80;99.90;;;;;;5054930;28;20206;-75
2023/10/31 05:28:56;;;;;;;12.63;9.23;;;10.70;99.90;;;;;;5054471;28;20646;-75
2023/10/31 05:31:22;;;;;;;11.03;9.03;;;10.70;99.90;;;;;;5054625;28;20702;-76
2023/10/31 05:33:48;;;;;;;11.50;9.03;;;10.80;99.90;;;;;;5054463;28;20190;-76
2023/10/31 05:36:24;;;;;;;11.20;8.43;;;10.80;99.90;;;;;;5054666;28;20281;-75
2023/10/31 05:38:50;;;;;;;10.20;7.83;;;10.70;99.90;;;;;;5055020;28;20260;-76
2023/10/31 05:41:15;;;;;;;10.17;8.63;;;10.80;99.90;;;;;;5055010;28;20347;-75
2023/10/31 05:43:41;;;;;;;9.53;7.90;;;10.80;99.90;;;;;;5055025;28;20225;-75
2023/10/31 05:46:10;;;;;;;8.77;7.40;;;10.90;99.90;;;;;;5055034;28;20199;-75
2023/10/31 05:48:40;;;;;;;9.77;7.77;;;10.80;99.90;;;;;;5054283;28;20172;-75
2023/10/31 05:51:16;;;;;;;8.37;7.47;;;10.80;99.90;;;;;;5054164;28;20164;-75
2023/10/31 05:53:45;;;;;;;7.83;7.10;;;10.80;99.90;;;;;;5054189;28;20211;-76
2023/10/31 05:56:12;;;;;;;10.60;7.50;;;10.80;99.90;;;;;;5054033;28;20282;-76
2023/10/31 05:58:39;;;;;;;11.87;7.37;;;10.70;99.90;;;;;;5052843;28;20265;-75
2023/10/31 06:01:08;;;;;;;13.63;7.37;;;10.70;99.90;;;;;;5053990;28;20203;-75
2023/10/31 06:03:33;;;;;;;7.87;7.07;;;10.70;99.90;;;;;;5053923;28;20605;-75
2023/10/31 06:05:59;;;;;;;7.77;6.97;;;10.70;99.90;;;;;;5053839;28;20221;-75
2023/10/31 06:08:27;;;;;;;10.27;7.77;;;10.70;99.90;;;;;;5053805;28;20250;-75
2023/10/31 06:10:54;;;;;;;9.13;7.70;;;10.70;99.90;;;;;;5053744;28;20595;-75
2023/10/31 06:13:19;;;;;;;10.13;7.50;;;10.60;99.90;;;;;;5053934;28;20179;-75
2023/10/31 06:15:45;;;;;;;8.90;7.70;;;10.60;99.90;;;;;;5053649;28;20253;-76
2023/10/31 06:18:11;;;;;;;9.97;7.77;;;10.60;99.90;;;;;;5053639;28;20178;-76
2023/10/31 06:20:36;;;;;;;10.73;7.90;;;10.60;99.90;;;;;;5053482;28;20201;-75
2023/10/31 06:23:05;;;;;;;11.57;7.83;;;10.60;99.90;;;;;;5053872;28;20245;-76
2023/10/31 06:25:30;;;;;;;10.00;8.53;;;10.60;99.90;;;;;;5053536;28;20192;-76
2023/10/31 06:27:56;;;;;;;9.20;8.30;;;10.70;99.90;;;;;;5053254;28;20176;-76
2023/10/31 06:30:21;;;;;;;11.73;8.50;;;10.70;99.90;;;;;;5053337;28;20192;-75
2023/10/31 06:32:47;;;;;;;9.47;8.47;;;10.70;99.90;;;;;;5053571;28;20175;-75
2023/10/31 06:35:12;;;;;;;11.73;9.07;;;10.70;99.90;;;;;;5053297;28;20199;-75
2023/10/31 06:37:38;;;;;;;11.00;8.83;;;10.70;99.90;;;;;;5053428;28;20206;-78
2023/10/31 06:40:04;;;;;;;12.83;9.63;;;10.70;99.90;;;;;;5053481;28;20196;-76
2023/10/31 06:42:31;;;;;;;11.87;9.67;;;10.70;99.90;;;;;;5054185;28;20172;-76
2023/10/31 06:44:56;;;;;;;11.93;9.73;;;10.70;99.90;;;;;;5053404;28;20274;-76
2023/10/31 06:47:22;;;;;;;10.23;8.90;;;10.70;99.90;;;;;;5051900;28;20184;-75
2023/10/31 06:49:47;;;;;;;11.27;9.37;;;10.70;99.90;;;;;;5051799;28;20221;-76
2023/10/31 06:52:13;;;;;;;12.43;10.13;;;10.70;99.90;;;;;;5053098;28;20179;-75
2023/10/31 06:54:38;;;;;;;12.77;10.33;;;10.70;99.90;;;;;;5053088;28;20199;-75
2023/10/31 06:57:04;;;;;;;15.87;10.70;;;10.70;99.90;;;;;;5053152;28;20179;-76
2023/10/31 06:59:30;;;;;;;12.33;10.40;;;10.70;99.90;;;;;;5053150;28;20172;-77
2023/10/31 07:01:55;;;;;;;15.43;10.90;;;10.70;99.90;;;;;;5052946;28;20282;-76
2023/10/31 07:04:21;;;;;;;12.97;10.30;;;10.70;99.90;;;;;;5052914;28;20175;-76
2023/10/31 07:06:46;;;;;;;14.77;11.03;;;10.70;99.90;;;;;;5053333;28;20252;-76
2023/10/31 07:09:12;;;;;;;15.97;10.80;;;10.70;99.90;;;;;;5053123;28;20198;-76
2023/10/31 07:11:38;;;;;;;13.77;11.53;;;10.70;99.90;;;;;;5052773;28;20306;-76
2023/10/31 07:14:03;;;;;;;12.53;10.93;;;10.70;99.90;;;;;;5052656;28;20171;-76
2023/10/31 07:16:30;;;;;;;15.23;11.57;;;10.70;99.90;;;;;;5052707;28;20195;-76
2023/10/31 07:18:55;;;;;;;14.40;11.77;;;10.70;99.90;;;;;;5051409;28;20269;-77
2023/10/31 07:21:21;;;;;;;15.17;11.97;;;10.70;99.90;;;;;;5052597;28;20196;-76
2023/10/31 07:23:46;;;;;;;13.10;11.83;;;10.70;99.90;;;;;;5052642;28;20176;-76
2023/10/31 07:26:12;;;;;;;13.00;11.60;;;10.80;99.90;;;;;;5052427;28;20200;-77
2023/10/31 07:28:37;;;;;;;13.87;11.30;;;10.70;99.90;;;;;;5052767;28;20187;-76
2023/10/31 07:31:04;;;;;;;16.13;11.47;;;10.80;99.90;;;;;;5052156;28;20608;-77
2023/10/31 07:33:30;;;;;;;16.50;10.93;;;10.80;99.90;;;;;;5051137;28;20215;-76
2023/10/31 07:35:55;;;;;;;13.87;11.20;;;10.80;99.90;;;;;;5052581;28;20709;-76
2023/10/31 07:38:21;;;;;;;14.90;11.20;;;10.80;99.90;;;;;;5051326;28;20194;-76
2023/10/31 07:40:47;;;;;;;14.63;11.83;;;10.80;99.90;;;;;;5050410;28;20210;-77
2023/10/31 07:43:13;;;;;;;13.70;12.17;;;10.80;99.90;;;;;;5052413;28;20175;-76
2023/10/31 07:45:39;;;;;;;16.40;12.23;;;10.80;99.90;;;;;;5050877;28;20801;-76
2023/10/31 07:48:04;;;;;;;12.17;10.97;;;10.80;99.90;;;;;;5051141;28;20256;-77
2023/10/31 07:50:30;;;;;;;13.93;12.53;;;10.80;99.90;;;;;;5053026;28;20180;-76
2023/10/31 07:52:56;;;;;;;15.67;12.47;;;10.80;99.90;;;;;;5052448;28;20305;-77
2023/10/31 07:55:22;;;;;;;15.10;12.47;;;10.80;99.90;;;;;;5050781;28;20294;-77
2023/10/31 07:57:47;;;;;;;14.63;13.00;;;10.90;99.90;;;;;;5052385;28;20180;-76
2023/10/31 08:00:13;;;;;;;14.63;12.57;;;10.80;99.90;;;;;;5050782;28;20695;-77
2023/10/31 08:02:39;;;;;;;14.13;12.53;;;10.90;99.90;;;;;;5051222;28;20182;-76
2023/10/31 08:05:05;;;;;;;17.37;12.97;;;10.90;99.90;;;;;;5052125;28;20195;-76
2023/10/31 08:07:31;;;;;;;20.37;13.20;;;10.90;99.90;;;;;;5050838;28;20171;-76
2023/10/31 08:09:56;;;;;;;14.43;11.83;;;10.90;99.90;;;;;;5050742;28;20241;-77
2023/10/31 08:12:22;;;;;;;12.50;11.30;;;10.80;99.90;;;;;;5051932;28;20176;-75
2023/10/31 08:14:48;;;;;;;12.97;10.50;;;10.80;99.90;;;;;;5051934;28;20644;-76
2023/10/31 08:17:14;;;;;;;12.60;10.13;;;10.90;99.90;;;;;;5051961;28;20176;-76
2023/10/31 08:19:39;;;;;;;10.90;9.80;;;10.90;99.90;;;;;;5051947;28;20223;-76
2023/10/31 08:22:05;;;;;;;12.10;9.60;;;10.90;99.90;;;;;;5050765;28;20186;-76
2023/10/31 08:24:31;;;;;;;12.17;8.73;;;10.90;99.90;;;;;;5052104;28;20182;-76
2023/10/31 08:26:56;;;;;;;14.17;8.93;;;10.80;99.90;;;;;;5051844;28;20194;-76
2023/10/31 08:29:22;;;;;;;9.50;8.60;;;10.90;99.90;;;;;;5051910;28;20190;-78
2023/10/31 08:31:47;;;;;;;10.13;8.47;;;10.90;99.90;;;;;;5052056;28;20164;-76
2023/10/31 08:34:13;;;;;;;9.57;7.20;;;10.80;99.90;;;;;;5051717;28;20171;-76
2023/10/31 08:36:38;;;;;;;10.07;7.23;;;10.90;99.90;;;;;;5051806;28;20349;-76
2023/10/31 08:39:04;;;;;;;9.17;6.83;;;10.80;99.90;;;;;;5051819;28;20169;-76
2023/10/31 08:41:30;;;;;;;8.23;7.07;;;10.90;99.90;;;;;;5051761;28;20289;-75
2023/10/31 08:43:55;;;;;;;7.20;6.50;;;10.90;99.90;;;;;;5050506;28;20208;-76
2023/10/31 08:46:21;;;;;;;8.27;6.57;;;10.90;99.90;;;;;;5053504;28;20623;-76
2023/10/31 08:48:47;;;;;;;8.37;6.80;;;10.90;99.90;;;;;;5054051;28;20168;-76
2023/10/31 08:51:13;;;;;;;6.77;6.00;;;11.00;99.90;;;;;;5054172;28;20233;-76
2023/10/31 08:53:38;;;;;;;8.10;6.23;;;11.00;99.90;;;;;;5056283;28;20176;-77
2023/10/31 08:56:04;;;;;;;11.20;6.63;;;11.00;99.90;;;;;;5057256;28;20309;-76
2023/10/31 08:58:29;;;;;;;7.47;6.27;;;11.00;99.90;;;;;;5057446;28;20250;-75
2023/10/31 09:00:55;;;;;;;7.90;5.83;;;11.00;99.90;;;;;;5057093;28;20195;-76
2023/10/31 09:03:21;;;;;;;6.33;5.80;;;11.10;99.90;;;;;;5056695;28;20175;-76
2023/10/31 09:05:46;;;;;;;7.73;5.90;;;11.10;99.90;;;;;;5056899;28;20217;-76
2023/10/31 09:08:12;;;;;;;7.57;6.47;;;11.10;99.90;;;;;;5057181;28;20186;-76
2023/10/31 09:10:42;;;;;;;8.57;6.20;;;11.20;99.90;;;;;;5056760;28;20172;-76
2023/10/31 09:13:09;;;;;;;8.87;6.83;;;11.20;99.90;;;;;;5057413;28;20481;-76
2023/10/31 09:15:35;;;;;;;7.57;6.27;;;11.20;99.90;;;;;;5055710;28;20202;-76
2023/10/31 09:18:02;;;;;;;7.93;6.53;;;11.20;99.90;;;;;;5055899;28;20194;-76
2023/10/31 09:20:29;;;;;;;7.73;6.43;;;11.20;99.90;;;;;;5054297;28;20202;-76
2023/10/31 09:22:54;;;;;;;7.37;6.40;;;11.20;99.90;;;;;;5055602;28;20160;-76
2023/10/31 09:25:20;;;;;;;8.00;6.47;;;11.20;99.90;;;;;;5054580;28;20678;-75
2023/10/31 09:27:46;;;;;;;7.63;6.47;;;11.20;99.90;;;;;;5070000;28;20633;-76
2023/10/31 09:30:11;;;;;;;8.63;6.97;;;11.30;99.90;;;;;;5054406;28;20188;-76
2023/10/31 09:32:37;;;;;;;6.70;6.00;;;11.30;99.90;;;;;;5054398;28;20203;-76
2023/10/31 09:35:03;;;;;;;9.03;6.67;;;11.30;99.90;;;;;;5054366;28;20231;-76
2023/10/31 09:37:28;;;;;;;7.67;6.20;;;11.30;99.90;;;;;;5054388;28;20167;-76
2023/10/31 09:39:54;;;;;;;7.27;6.57;;;11.40;99.90;;;;;;5054741;28;20176;-76
2023/10/31 09:42:19;;;;;;;9.10;7.67;;;11.40;99.90;;;;;;5054251;28;20671;-76
2023/10/31 09:44:45;;;;;;;11.00;7.83;;;11.30;99.90;;;;;;5054509;28;20254;-76
2023/10/31 09:47:12;;;;;;;10.90;7.63;;;11.30;99.90;;;;;;5054033;28;20167;-76
2023/10/31 09:49:37;;;;;;;8.87;7.97;;;11.30;99.90;;;;;;5054131;28;20215;-76
2023/10/31 09:52:03;;;;;;;8.87;7.97;;;11.30;99.90;;;;;;5054125;28;20300;-75
2023/10/31 09:54:29;;;;;;;8.87;7.93;;;11.40;99.90;;;;;;5054083;28;20172;-76
2023/10/31 09:56:55;;;;;;;9.93;7.20;;;11.40;99.90;;;;;;5054096;28;20257;-76
2023/10/31 09:59:21;;;;;;;9.10;7.00;;;11.50;99.90;;;;;;5054044;28;20171;-76
2023/10/31 10:01:46;;;;;;;13.67;7.00;;;11.50;99.90;;;;;;5053765;28;20249;-75
2023/10/31 10:04:12;;;;;;;9.83;6.67;;;11.50;99.90;;;;;;5053820;28;20551;-76
2023/10/31 10:07:02;;;;;;;9.40;6.83;;;11.50;99.90;;;;;;5053702;28;20219;-75
2023/10/31 10:09:28;;;;;;;10.27;6.77;;;11.50;99.90;;;;;;5053818;28;20160;-76
2023/10/31 10:11:54;;;;;;;8.20;6.27;;;11.50;99.90;;;;;;5053691;28;20237;-76
2023/10/31 10:14:22;;;;;;;7.50;6.70;;;11.50;99.90;;;;;;5053615;28;20172;-76
2023/10/31 10:16:48;;;;;;;11.37;6.77;;;11.50;99.90;;;;;;5053483;28;20605;-76
2023/10/31 10:19:21;;;;;;;10.50;7.20;;;11.60;99.90;;;;;;5052214;28;20221;-76
2023/10/31 10:21:52;;;;;;;9.97;6.17;;;11.70;99.90;;;;;;5053612;28;20666;-76
2023/10/31 10:24:19;;;;;;;10.83;6.20;;;11.70;99.90;;;;;;5053448;28;20187;-76
2023/10/31 10:26:45;;;;;;;8.87;5.83;;;11.70;99.90;;;;;;5053338;28;20223;-76
2023/10/31 10:29:10;;;;;;;7.47;5.97;;;11.80;99.90;;;;;;5053257;28;20297;-76
2023/10/31 10:31:36;;;;;;;9.13;5.40;;;11.80;99.90;;;;;;5053336;28;20175;-76
2023/10/31 10:34:01;;;;;;;9.57;5.57;;;11.90;99.90;;;;;;5053501;28;20274;-76
2023/10/31 10:36:27;;;;;;;8.57;4.90;;;11.90;99.90;;;;;;5053216;28;20210;-76
2023/10/31 10:39:00;;;;;;;7.50;5.10;;;11.90;99.90;;;;;;5053635;28;20540;-75
2023/10/31 10:41:29;;;;;;;6.20;4.63;;;12.00;99.90;;;;;;5053061;28;20253;-76
2023/10/31 10:44:13;;;;;;;5.23;3.70;;;12.00;99.90;;;;;;5051704;28;20207;-76
2023/10/31 10:46:40;;;;;;;6.30;3.97;;;12.00;99.90;;;;;;5053155;28;20187;-76
2023/10/31 10:49:07;;;;;;;6.37;3.40;;;12.00;99.90;;;;;;5053446;28;20168;-76
2023/10/31 10:51:58;;;;;;;7.07;3.80;;;12.00;99.90;;;;;;5053011;28;20214;-78
2023/10/31 10:54:47;;;;;;;7.37;4.00;;;12.10;99.90;;;;;;5053161;28;20160;-76
2023/10/31 10:57:36;;;;;;;8.17;3.70;;;12.30;99.90;;;;;;5049702;28;20196;-76
2023/10/31 11:00:08;;;;;;;5.73;3.67;;;12.40;99.90;;;;;;5052912;28;20152;-76
2023/10/31 11:02:36;;;;;;;7.07;3.53;;;12.50;99.90;;;;;;5051572;28;20148;-76
2023/10/31 11:05:04;;;;;;;7.50;3.30;;;12.60;99.90;;;;;;5051257;28;20194;-76
2023/10/31 11:07:32;;;;;;;5.13;3.80;;;12.70;99.90;;;;;;5053095;28;20615;-76
2023/10/31 11:10:01;;;;;;;6.93;3.20;;;12.70;99.90;;;;;;5052782;28;20531;-76
2023/10/31 11:12:29;;;;;;;8.40;3.17;;;12.80;99.90;;;;;;5052570;28;20221;-76
2023/10/31 11:14:55;;;;;;;7.17;3.00;;;12.90;99.90;;;;;;5051850;28;20167;-75
2023/10/31 11:17:31;;;;;;;4.80;2.77;;;12.90;99.90;;;;;;5052637;28;20170;-76
2023/10/31 11:19:57;;;;;;;4.63;2.60;;;13.00;99.90;;;;;;5052457;28;20592;-76
2023/10/31 11:22:22;;;;;;;5.03;2.77;;;13.00;99.90;;;;;;5052679;28;20245;-76
2023/10/31 11:24:52;;;;;;;7.20;2.90;;;13.00;99.90;;;;;;5050975;28;20179;-76
2023/10/31 11:27:18;;;;;;;5.50;2.80;;;13.10;99.90;;;;;;5052341;28;20174;-76
2023/10/31 11:29:44;;;;;;;6.23;2.40;;;13.20;99.90;;;;;;5052349;28;20640;-75
2023/10/31 11:32:11;;;;;;;6.73;2.53;;;13.10;99.90;;;;;;5052282;28;20173;-76
2023/10/31 11:34:41;;;;;;;7.07;2.20;;;13.20;99.90;;;;;;5052425;28;20229;-76
2023/10/31 11:37:23;;;;;;;4.60;2.10;;;13.20;99.90;;;;;;5052199;28;20164;-75
2023/10/31 11:40:12;;;;;;;4.53;2.00;;;13.20;99.90;;;;;;5052071;28;20163;-76
2023/10/31 11:42:38;;;;;;;5.00;2.10;;;13.20;99.90;;;;;;5048713;28;20187;-76
2023/10/31 11:45:04;;;;;;;5.50;1.93;;;13.30;99.90;;;;;;5052064;28;20187;-76
2023/10/31 11:47:49;;;;;;;5.17;1.73;;;13.20;99.90;;;;;;5052076;28;20171;-76
2023/10/31 11:50:16;;;;;;;5.20;1.90;;;13.30;99.90;;;;;;5052531;28;20171;-76
2023/10/31 11:52:42;;;;;;;3.63;1.80;;;13.20;99.90;;;;;;5052042;28;20175;-75
2023/10/31 11:55:13;;;;;;;5.17;1.70;;;13.10;99.90;;;;;;5052202;28;20190;-75
2023/10/31 11:57:39;;;;;;;3.73;1.60;;;13.10;99.90;;;;;;5052090;28;20194;-76
2023/10/31 12:00:07;;;;;;;7.40;1.83;;;13.10;99.90;;;;;;5052136;28;20734;-77
2023/10/31 12:02:33;;;;;;;5.37;2.00;;;13.20;99.90;;;;;;5052151;28;20271;-76
2023/10/31 12:05:12;;;;;;;2.80;1.97;;;13.30;99.90;;;;;;5052074;28;20230;-74
2023/10/31 12:07:46;;;;;;;6.70;2.30;;;13.20;99.90;;;;;;5052073;28;20163;-75
2023/10/31 12:10:12;;;;;;;4.40;1.90;;;13.40;99.90;;;;;;5051905;28;20592;-75
2023/10/31 12:12:38;;;;;;;4.27;1.63;;;13.50;99.90;;;;;;5051930;28;20176;-76
2023/10/31 12:15:08;;;;;;;2.57;1.53;;;13.50;99.90;;;;;;5051853;28;20627;-76
2023/10/31 12:17:34;;;;;;;5.00;1.73;;;13.50;99.90;;;;;;5051852;28;20290;-75
2023/10/31 12:20:08;;;;;;;5.23;1.77;;;13.40;99.90;;;;;;5051736;28;20164;-76
2023/10/31 12:22:34;;;;;;;2.30;1.93;;;13.30;99.90;;;;;;5051773;28;20179;-76
2023/10/31 12:25:08;;;;;;;2.73;1.73;;;13.30;99.90;;;;;;5050318;28;20195;-76
2023/10/31 12:27:49;;;;;;;6.10;1.80;;;13.30;99.90;;;;;;5054332;28;20731;-76
2023/10/31 12:30:16;;;;;;;2.77;1.70;;;13.30;99.90;;;;;;5055493;28;20179;-76
2023/10/31 12:32:43;;;;;;;6.13;1.43;;;13.40;99.90;;;;;;5055496;28;20524;-76
2023/10/31 12:35:16;;;;;;;3.67;1.40;;;13.40;99.90;;;;;;5055434;28;20187;-76
2023/10/31 12:37:47;;;;;;;1.93;1.30;;;13.50;99.90;;;;;;5055717;28;20187;-75